sensor_id;sensor_type;location;lat;lon;timestamp;P1;durP1;ratioP1;P2;durP2;ratioP2
8486;SDS011;4280;50.534;8.708;2024-02-28T00:00:03;36.33;;;15.97;;
8486;SDS011;4280;50.534;8.708;2024-02-28T00:02:30;39.70;;;18.33;;
8486;SDS011;4280;50.534;8.708;2024-02-28T00:04:56;33.43;;;16.93;;
8486;SDS011;4280;50.534;8.708;2024-02-28T00:07:24;33.53;;;17.07;;
8486;SDS011;4280;50.534;8.708;2024-02-28T00:09:49;30.10;;;15.60;;
8486;SDS011;4280;50.534;8.708;2024-02-28T00:12:15;40.87;;;16.87;;
8486;SDS011;4280;50.534;8.708;2024-02-28T00:14:41;43.43;;;17.10;;
8486;SDS011;4280;50.534;8.708;2024-02-28T00:17:07;41.50;;;18.80;;
8486;SDS011;4280;50.534;8.708;2024-02-28T00:19:32;44.07;;;18.83;;
8486;SDS011;4280;50.534;8.708;2024-02-28T00:22:01;41.43;;;18.83;;
8486;SDS011;4280;50.534;8.708;2024-02-28T00:24:27;41.50;;;18.40;;
8486;SDS011;4280;50.534;8.708;2024-02-28T00:26:52;43.43;;;19.33;;
8486;SDS011;4280;50.534;8.708;2024-02-28T00:29:18;53.00;;;20.13;;
8486;SDS011;4280;50.534;8.708;2024-02-28T00:31:44;39.70;;;20.27;;
8486;SDS011;4280;50.534;8.708;2024-02-28T00:34:10;36.10;;;18.37;;
8486;SDS011;4280;50.534;8.708;2024-02-28T00:36:35;46.63;;;20.13;;
8486;SDS011;4280;50.534;8.708;2024-02-28T00:39:01;41.33;;;18.30;;
8486;SDS011;4280;50.534;8.708;2024-02-28T00:41:27;41.93;;;20.00;;
8486;SDS011;4280;50.534;8.708;2024-02-28T00:43:52;42.67;;;20.80;;
8486;SDS011;4280;50.534;8.708;2024-02-28T00:46:18;41.47;;;20.40;;
8486;SDS011;4280;50.534;8.708;2024-02-28T00:48:44;47.77;;;21.73;;
8486;SDS011;4280;50.534;8.708;2024-02-28T00:51:09;45.40;;;19.60;;
8486;SDS011;4280;50.534;8.708;2024-02-28T00:53:35;51.67;;;23.73;;
8486;SDS011;4280;50.534;8.708;2024-02-28T00:56:02;58.87;;;24.47;;
8486;SDS011;4280;50.534;8.708;2024-02-28T00:58:28;59.30;;;25.20;;
8486;SDS011;4280;50.534;8.708;2024-02-28T01:00:55;61.00;;;27.07;;
8486;SDS011;4280;50.534;8.708;2024-02-28T01:03:22;63.47;;;26.23;;
8486;SDS011;4280;50.534;8.708;2024-02-28T01:05:48;56.97;;;23.77;;
8486;SDS011;4280;50.534;8.708;2024-02-28T01:08:15;56.00;;;22.70;;
8486;SDS011;4280;50.534;8.708;2024-02-28T01:10:42;45.13;;;21.20;;
8486;SDS011;4280;50.534;8.708;2024-02-28T01:13:09;56.93;;;23.20;;
8486;SDS011;4280;50.534;8.708;2024-02-28T01:15:35;51.40;;;21.30;;
8486;SDS011;4280;50.534;8.708;2024-02-28T01:18:00;51.73;;;19.17;;
8486;SDS011;4280;50.534;8.708;2024-02-28T01:20:26;47.77;;;20.67;;
8486;SDS011;4280;50.534;8.708;2024-02-28T01:22:52;50.57;;;22.70;;
8486;SDS011;4280;50.534;8.708;2024-02-28T01:25:17;53.57;;;21.30;;
8486;SDS011;4280;50.534;8.708;2024-02-28T01:27:43;62.27;;;21.50;;
8486;SDS011;4280;50.534;8.708;2024-02-28T01:30:09;52.23;;;23.30;;
8486;SDS011;4280;50.534;8.708;2024-02-28T01:32:35;50.30;;;20.77;;
8486;SDS011;4280;50.534;8.708;2024-02-28T01:35:04;48.83;;;21.70;;
8486;SDS011;4280;50.534;8.708;2024-02-28T01:37:30;63.87;;;24.87;;
8486;SDS011;4280;50.534;8.708;2024-02-28T01:39:56;51.57;;;24.23;;
8486;SDS011;4280;50.534;8.708;2024-02-28T01:42:22;57.83;;;23.70;;
8486;SDS011;4280;50.534;8.708;2024-02-28T01:44:48;49.73;;;22.40;;
8486;SDS011;4280;50.534;8.708;2024-02-28T01:47:15;50.43;;;22.60;;
8486;SDS011;4280;50.534;8.708;2024-02-28T01:49:41;46.80;;;21.47;;
8486;SDS011;4280;50.534;8.708;2024-02-28T01:52:09;58.20;;;22.57;;
8486;SDS011;4280;50.534;8.708;2024-02-28T01:54:35;51.70;;;22.70;;
8486;SDS011;4280;50.534;8.708;2024-02-28T01:57:01;51.73;;;23.10;;
8486;SDS011;4280;50.534;8.708;2024-02-28T01:59:27;55.00;;;23.37;;
8486;SDS011;4280;50.534;8.708;2024-02-28T02:01:55;48.50;;;21.43;;
8486;SDS011;4280;50.534;8.708;2024-02-28T02:04:21;58.20;;;23.20;;
8486;SDS011;4280;50.534;8.708;2024-02-28T02:06:46;49.00;;;23.97;;
8486;SDS011;4280;50.534;8.708;2024-02-28T02:09:14;56.10;;;22.50;;
8486;SDS011;4280;50.534;8.708;2024-02-28T02:11:41;43.63;;;20.87;;
8486;SDS011;4280;50.534;8.708;2024-02-28T02:14:07;54.63;;;23.50;;
8486;SDS011;4280;50.534;8.708;2024-02-28T02:16:32;57.30;;;23.87;;
8486;SDS011;4280;50.534;8.708;2024-02-28T02:18:58;54.90;;;22.70;;
8486;SDS011;4280;50.534;8.708;2024-02-28T02:21:24;62.00;;;23.40;;
8486;SDS011;4280;50.534;8.708;2024-02-28T02:23:55;50.67;;;21.00;;
8486;SDS011;4280;50.534;8.708;2024-02-28T02:26:21;58.83;;;23.73;;
8486;SDS011;4280;50.534;8.708;2024-02-28T02:28:47;49.47;;;21.70;;
8486;SDS011;4280;50.534;8.708;2024-02-28T02:31:13;51.50;;;23.10;;
8486;SDS011;4280;50.534;8.708;2024-02-28T02:33:39;54.87;;;22.80;;
8486;SDS011;4280;50.534;8.708;2024-02-28T02:36:05;50.57;;;19.70;;
8486;SDS011;4280;50.534;8.708;2024-02-28T02:38:31;54.50;;;23.73;;
8486;SDS011;4280;50.534;8.708;2024-02-28T02:40:57;47.50;;;19.17;;
8486;SDS011;4280;50.534;8.708;2024-02-28T02:43:23;66.10;;;21.93;;
8486;SDS011;4280;50.534;8.708;2024-02-28T02:45:49;62.80;;;22.83;;
8486;SDS011;4280;50.534;8.708;2024-02-28T02:48:15;44.83;;;20.63;;
8486;SDS011;4280;50.534;8.708;2024-02-28T02:50:41;51.63;;;19.67;;
8486;SDS011;4280;50.534;8.708;2024-02-28T02:53:09;41.43;;;18.47;;
8486;SDS011;4280;50.534;8.708;2024-02-28T02:55:35;47.60;;;19.63;;
8486;SDS011;4280;50.534;8.708;2024-02-28T02:58:01;49.87;;;20.77;;
8486;SDS011;4280;50.534;8.708;2024-02-28T03:00:27;56.53;;;20.43;;
8486;SDS011;4280;50.534;8.708;2024-02-28T03:02:54;61.33;;;21.87;;
8486;SDS011;4280;50.534;8.708;2024-02-28T03:05:19;52.57;;;20.03;;
8486;SDS011;4280;50.534;8.708;2024-02-28T03:07:45;54.77;;;20.73;;
8486;SDS011;4280;50.534;8.708;2024-02-28T03:10:11;53.53;;;21.90;;
8486;SDS011;4280;50.534;8.708;2024-02-28T03:12:36;55.63;;;21.53;;
8486;SDS011;4280;50.534;8.708;2024-02-28T03:15:02;62.33;;;22.40;;
8486;SDS011;4280;50.534;8.708;2024-02-28T03:17:29;60.93;;;21.30;;
8486;SDS011;4280;50.534;8.708;2024-02-28T03:19:55;60.43;;;21.47;;
8486;SDS011;4280;50.534;8.708;2024-02-28T03:22:21;63.73;;;23.60;;
8486;SDS011;4280;50.534;8.708;2024-02-28T03:24:47;59.43;;;23.40;;
8486;SDS011;4280;50.534;8.708;2024-02-28T03:27:13;71.67;;;23.30;;
8486;SDS011;4280;50.534;8.708;2024-02-28T03:29:39;68.90;;;25.80;;
8486;SDS011;4280;50.534;8.708;2024-02-28T03:32:05;62.37;;;25.03;;
8486;SDS011;4280;50.534;8.708;2024-02-28T03:34:31;52.43;;;20.60;;
8486;SDS011;4280;50.534;8.708;2024-02-28T03:36:57;65.13;;;23.60;;
8486;SDS011;4280;50.534;8.708;2024-02-28T03:39:22;59.97;;;24.97;;
8486;SDS011;4280;50.534;8.708;2024-02-28T03:41:48;60.83;;;21.53;;
8486;SDS011;4280;50.534;8.708;2024-02-28T03:44:14;64.30;;;23.63;;
8486;SDS011;4280;50.534;8.708;2024-02-28T03:46:39;66.17;;;23.93;;
8486;SDS011;4280;50.534;8.708;2024-02-28T03:49:05;57.00;;;21.17;;
8486;SDS011;4280;50.534;8.708;2024-02-28T03:51:31;58.33;;;23.60;;
8486;SDS011;4280;50.534;8.708;2024-02-28T03:53:56;58.73;;;22.67;;
8486;SDS011;4280;50.534;8.708;2024-02-28T03:56:25;64.63;;;24.10;;
8486;SDS011;4280;50.534;8.708;2024-02-28T03:58:52;57.77;;;22.30;;
8486;SDS011;4280;50.534;8.708;2024-02-28T04:01:18;49.47;;;20.13;;
8486;SDS011;4280;50.534;8.708;2024-02-28T04:03:44;41.63;;;18.87;;
8486;SDS011;4280;50.534;8.708;2024-02-28T04:06:10;57.73;;;21.67;;
8486;SDS011;4280;50.534;8.708;2024-02-28T04:08:36;51.17;;;20.93;;
8486;SDS011;4280;50.534;8.708;2024-02-28T04:11:02;53.97;;;19.63;;
8486;SDS011;4280;50.534;8.708;2024-02-28T04:13:28;43.47;;;17.47;;
8486;SDS011;4280;50.534;8.708;2024-02-28T04:15:54;46.30;;;18.77;;
8486;SDS011;4280;50.534;8.708;2024-02-28T04:18:20;55.57;;;18.70;;
8486;SDS011;4280;50.534;8.708;2024-02-28T04:20:46;52.53;;;19.97;;
8486;SDS011;4280;50.534;8.708;2024-02-28T04:23:11;65.30;;;22.17;;
8486;SDS011;4280;50.534;8.708;2024-02-28T04:25:37;54.23;;;22.80;;
8486;SDS011;4280;50.534;8.708;2024-02-28T04:28:05;47.43;;;20.90;;
8486;SDS011;4280;50.534;8.708;2024-02-28T04:30:32;52.43;;;22.43;;
8486;SDS011;4280;50.534;8.708;2024-02-28T04:32:58;47.40;;;22.03;;
8486;SDS011;4280;50.534;8.708;2024-02-28T04:35:24;51.47;;;22.20;;
8486;SDS011;4280;50.534;8.708;2024-02-28T04:37:49;48.47;;;21.67;;
8486;SDS011;4280;50.534;8.708;2024-02-28T04:40:15;57.00;;;23.90;;
8486;SDS011;4280;50.534;8.708;2024-02-28T04:42:41;56.80;;;22.77;;
8486;SDS011;4280;50.534;8.708;2024-02-28T04:45:08;47.63;;;19.50;;
8486;SDS011;4280;50.534;8.708;2024-02-28T04:47:34;45.70;;;21.07;;
8486;SDS011;4280;50.534;8.708;2024-02-28T04:50:01;55.97;;;22.87;;
8486;SDS011;4280;50.534;8.708;2024-02-28T04:52:29;51.43;;;22.13;;
8486;SDS011;4280;50.534;8.708;2024-02-28T04:54:55;47.33;;;21.40;;
8486;SDS011;4280;50.534;8.708;2024-02-28T04:57:21;70.50;;;24.00;;
8486;SDS011;4280;50.534;8.708;2024-02-28T04:59:47;53.80;;;24.57;;
8486;SDS011;4280;50.534;8.708;2024-02-28T05:02:13;127.27;;;24.23;;
8486;SDS011;4280;50.534;8.708;2024-02-28T05:04:38;161.67;;;25.70;;
8486;SDS011;4280;50.534;8.708;2024-02-28T05:07:04;64.83;;;22.53;;
8486;SDS011;4280;50.534;8.708;2024-02-28T05:09:32;269.07;;;27.67;;
8486;SDS011;4280;50.534;8.708;2024-02-28T05:11:58;180.93;;;25.97;;
8486;SDS011;4280;50.534;8.708;2024-02-28T05:14:24;210.53;;;24.37;;
8486;SDS011;4280;50.534;8.708;2024-02-28T05:16:50;85.27;;;23.37;;
8486;SDS011;4280;50.534;8.708;2024-02-28T05:19:16;174.70;;;27.77;;
8486;SDS011;4280;50.534;8.708;2024-02-28T05:21:43;145.33;;;25.17;;
8486;SDS011;4280;50.534;8.708;2024-02-28T05:24:09;111.93;;;27.17;;
8486;SDS011;4280;50.534;8.708;2024-02-28T05:26:35;102.03;;;27.50;;
8486;SDS011;4280;50.534;8.708;2024-02-28T05:29:02;170.53;;;26.63;;
8486;SDS011;4280;50.534;8.708;2024-02-28T05:31:28;282.10;;;32.80;;
8486;SDS011;4280;50.534;8.708;2024-02-28T05:33:56;327.57;;;32.27;;
8486;SDS011;4280;50.534;8.708;2024-02-28T05:36:23;78.50;;;24.57;;
8486;SDS011;4280;50.534;8.708;2024-02-28T05:38:51;479.17;;;39.73;;
8486;SDS011;4280;50.534;8.708;2024-02-28T05:41:18;188.87;;;28.43;;
8486;SDS011;4280;50.534;8.708;2024-02-28T05:43:44;286.63;;;32.20;;
8486;SDS011;4280;50.534;8.708;2024-02-28T05:46:10;118.67;;;28.37;;
8486;SDS011;4280;50.534;8.708;2024-02-28T05:48:36;325.37;;;34.67;;
8486;SDS011;4280;50.534;8.708;2024-02-28T05:51:02;195.90;;;29.87;;
8486;SDS011;4280;50.534;8.708;2024-02-28T05:53:29;148.57;;;30.17;;
8486;SDS011;4280;50.534;8.708;2024-02-28T05:56:01;218.60;;;29.47;;
8486;SDS011;4280;50.534;8.708;2024-02-28T05:58:27;532.70;;;39.67;;
8486;SDS011;4280;50.534;8.708;2024-02-28T06:00:53;345.10;;;34.20;;
8486;SDS011;4280;50.534;8.708;2024-02-28T06:03:19;247.20;;;33.50;;
8486;SDS011;4280;50.534;8.708;2024-02-28T06:05:45;173.00;;;29.17;;
8486;SDS011;4280;50.534;8.708;2024-02-28T06:08:11;201.53;;;28.47;;
8486;SDS011;4280;50.534;8.708;2024-02-28T06:10:37;137.87;;;23.10;;
8486;SDS011;4280;50.534;8.708;2024-02-28T06:13:03;287.57;;;33.07;;
8486;SDS011;4280;50.534;8.708;2024-02-28T06:15:29;308.07;;;34.70;;
8486;SDS011;4280;50.534;8.708;2024-02-28T06:17:58;310.27;;;29.70;;
8486;SDS011;4280;50.534;8.708;2024-02-28T06:20:25;306.63;;;31.23;;
8486;SDS011;4280;50.534;8.708;2024-02-28T06:22:52;229.00;;;31.87;;
8486;SDS011;4280;50.534;8.708;2024-02-28T06:25:17;263.63;;;32.77;;
8486;SDS011;4280;50.534;8.708;2024-02-28T06:27:45;368.50;;;36.43;;
8486;SDS011;4280;50.534;8.708;2024-02-28T06:30:11;458.07;;;37.97;;
8486;SDS011;4280;50.534;8.708;2024-02-28T06:32:40;287.63;;;32.60;;
8486;SDS011;4280;50.534;8.708;2024-02-28T06:35:06;380.90;;;34.13;;
8486;SDS011;4280;50.534;8.708;2024-02-28T06:37:33;195.00;;;28.90;;
8486;SDS011;4280;50.534;8.708;2024-02-28T06:39:59;360.00;;;34.43;;
8486;SDS011;4280;50.534;8.708;2024-02-28T06:42:25;434.20;;;37.00;;
8486;SDS011;4280;50.534;8.708;2024-02-28T06:44:51;408.80;;;36.00;;
8486;SDS011;4280;50.534;8.708;2024-02-28T06:47:17;148.20;;;25.87;;
8486;SDS011;4280;50.534;8.708;2024-02-28T06:49:45;184.37;;;29.17;;
8486;SDS011;4280;50.534;8.708;2024-02-28T06:52:11;433.53;;;35.47;;
8486;SDS011;4280;50.534;8.708;2024-02-28T06:54:37;453.43;;;36.93;;
8486;SDS011;4280;50.534;8.708;2024-02-28T06:57:02;216.37;;;28.60;;
8486;SDS011;4280;50.534;8.708;2024-02-28T06:59:28;313.83;;;30.67;;
8486;SDS011;4280;50.534;8.708;2024-02-28T07:01:54;258.83;;;29.30;;
8486;SDS011;4280;50.534;8.708;2024-02-28T07:04:20;278.00;;;32.27;;
8486;SDS011;4280;50.534;8.708;2024-02-28T07:06:45;284.23;;;30.83;;
8486;SDS011;4280;50.534;8.708;2024-02-28T07:09:11;283.10;;;29.90;;
8486;SDS011;4280;50.534;8.708;2024-02-28T07:11:37;163.73;;;25.47;;
8486;SDS011;4280;50.534;8.708;2024-02-28T07:14:03;185.17;;;25.40;;
8486;SDS011;4280;50.534;8.708;2024-02-28T07:16:30;206.33;;;29.00;;
8486;SDS011;4280;50.534;8.708;2024-02-28T07:18:58;179.40;;;25.43;;
8486;SDS011;4280;50.534;8.708;2024-02-28T07:21:25;223.83;;;25.53;;
8486;SDS011;4280;50.534;8.708;2024-02-28T07:23:51;276.90;;;31.43;;
8486;SDS011;4280;50.534;8.708;2024-02-28T07:26:16;273.07;;;29.23;;
8486;SDS011;4280;50.534;8.708;2024-02-28T07:28:42;393.30;;;35.30;;
8486;SDS011;4280;50.534;8.708;2024-02-28T07:31:14;327.60;;;31.27;;
8486;SDS011;4280;50.534;8.708;2024-02-28T07:33:41;535.23;;;47.50;;
8486;SDS011;4280;50.534;8.708;2024-02-28T07:36:07;143.83;;;20.87;;
8486;SDS011;4280;50.534;8.708;2024-02-28T07:38:33;256.93;;;28.73;;
8486;SDS011;4280;50.534;8.708;2024-02-28T07:40:59;149.17;;;26.47;;
8486;SDS011;4280;50.534;8.708;2024-02-28T07:43:24;361.10;;;32.03;;
8486;SDS011;4280;50.534;8.708;2024-02-28T07:45:50;182.30;;;26.20;;
8486;SDS011;4280;50.534;8.708;2024-02-28T07:48:16;139.90;;;25.43;;
8486;SDS011;4280;50.534;8.708;2024-02-28T07:50:43;162.13;;;26.47;;
8486;SDS011;4280;50.534;8.708;2024-02-28T07:53:09;117.63;;;25.27;;
8486;SDS011;4280;50.534;8.708;2024-02-28T07:55:35;87.57;;;24.00;;
8486;SDS011;4280;50.534;8.708;2024-02-28T07:58:01;132.77;;;23.53;;
8486;SDS011;4280;50.534;8.708;2024-02-28T08:00:27;204.47;;;26.33;;
8486;SDS011;4280;50.534;8.708;2024-02-28T08:02:53;198.43;;;25.80;;
8486;SDS011;4280;50.534;8.708;2024-02-28T08:05:19;259.80;;;27.20;;
8486;SDS011;4280;50.534;8.708;2024-02-28T08:07:44;139.87;;;26.97;;
8486;SDS011;4280;50.534;8.708;2024-02-28T08:10:10;157.47;;;25.80;;
8486;SDS011;4280;50.534;8.708;2024-02-28T08:12:36;147.20;;;24.27;;
8486;SDS011;4280;50.534;8.708;2024-02-28T08:15:03;148.23;;;23.10;;
8486;SDS011;4280;50.534;8.708;2024-02-28T08:17:29;141.53;;;23.47;;
8486;SDS011;4280;50.534;8.708;2024-02-28T08:19:56;184.70;;;26.43;;
8486;SDS011;4280;50.534;8.708;2024-02-28T08:22:21;164.87;;;26.60;;
8486;SDS011;4280;50.534;8.708;2024-02-28T08:24:51;133.57;;;24.33;;
8486;SDS011;4280;50.534;8.708;2024-02-28T08:27:20;249.27;;;28.47;;
8486;SDS011;4280;50.534;8.708;2024-02-28T08:29:46;315.73;;;27.97;;
8486;SDS011;4280;50.534;8.708;2024-02-28T08:32:12;147.47;;;25.23;;
8486;SDS011;4280;50.534;8.708;2024-02-28T08:34:38;107.10;;;25.03;;
8486;SDS011;4280;50.534;8.708;2024-02-28T08:37:04;116.67;;;24.00;;
8486;SDS011;4280;50.534;8.708;2024-02-28T08:39:30;91.20;;;23.10;;
8486;SDS011;4280;50.534;8.708;2024-02-28T08:41:56;114.50;;;22.50;;
8486;SDS011;4280;50.534;8.708;2024-02-28T08:44:21;135.37;;;23.87;;
8486;SDS011;4280;50.534;8.708;2024-02-28T08:46:47;145.83;;;23.77;;
8486;SDS011;4280;50.534;8.708;2024-02-28T08:49:13;72.93;;;22.17;;
8486;SDS011;4280;50.534;8.708;2024-02-28T08:51:39;123.73;;;26.87;;
8486;SDS011;4280;50.534;8.708;2024-02-28T08:54:05;93.73;;;22.37;;
8486;SDS011;4280;50.534;8.708;2024-02-28T08:56:31;81.87;;;22.50;;
8486;SDS011;4280;50.534;8.708;2024-02-28T08:58:58;88.27;;;24.67;;
8486;SDS011;4280;50.534;8.708;2024-02-28T09:01:24;120.07;;;22.43;;
8486;SDS011;4280;50.534;8.708;2024-02-28T09:03:50;116.73;;;24.83;;
8486;SDS011;4280;50.534;8.708;2024-02-28T09:06:16;141.97;;;24.87;;
8486;SDS011;4280;50.534;8.708;2024-02-28T09:08:41;75.73;;;23.27;;
8486;SDS011;4280;50.534;8.708;2024-02-28T09:11:07;66.77;;;22.37;;
8486;SDS011;4280;50.534;8.708;2024-02-28T09:13:33;64.17;;;20.80;;
8486;SDS011;4280;50.534;8.708;2024-02-28T09:16:00;104.13;;;25.20;;
8486;SDS011;4280;50.534;8.708;2024-02-28T09:18:27;64.37;;;23.80;;
8486;SDS011;4280;50.534;8.708;2024-02-28T09:20:53;69.00;;;22.93;;
8486;SDS011;4280;50.534;8.708;2024-02-28T09:23:18;69.97;;;22.63;;
8486;SDS011;4280;50.534;8.708;2024-02-28T09:25:44;76.03;;;24.27;;
8486;SDS011;4280;50.534;8.708;2024-02-28T09:28:10;68.50;;;23.43;;
8486;SDS011;4280;50.534;8.708;2024-02-28T09:30:38;56.80;;;21.77;;
8486;SDS011;4280;50.534;8.708;2024-02-28T09:33:04;58.03;;;21.50;;
8486;SDS011;4280;50.534;8.708;2024-02-28T09:35:30;104.40;;;23.30;;
8486;SDS011;4280;50.534;8.708;2024-02-28T09:37:55;55.90;;;21.40;;
8486;SDS011;4280;50.534;8.708;2024-02-28T09:40:21;58.07;;;19.63;;
8486;SDS011;4280;50.534;8.708;2024-02-28T09:42:50;48.40;;;19.50;;
8486;SDS011;4280;50.534;8.708;2024-02-28T09:45:21;59.30;;;19.17;;
8486;SDS011;4280;50.534;8.708;2024-02-28T09:47:49;82.57;;;20.37;;
8486;SDS011;4280;50.534;8.708;2024-02-28T09:50:15;62.77;;;19.07;;
8486;SDS011;4280;50.534;8.708;2024-02-28T09:52:43;50.70;;;19.47;;
8486;SDS011;4280;50.534;8.708;2024-02-28T09:55:09;50.10;;;20.73;;
8486;SDS011;4280;50.534;8.708;2024-02-28T09:57:35;61.13;;;22.40;;
8486;SDS011;4280;50.534;8.708;2024-02-28T10:00:02;77.00;;;19.83;;
8486;SDS011;4280;50.534;8.708;2024-02-28T10:02:29;54.67;;;21.03;;
8486;SDS011;4280;50.534;8.708;2024-02-28T10:07:33;50.30;;;19.83;;
8486;SDS011;4280;50.534;8.708;2024-02-28T10:09:58;45.40;;;18.90;;
8486;SDS011;4280;50.534;8.708;2024-02-28T10:12:24;40.93;;;19.07;;
8486;SDS011;4280;50.534;8.708;2024-02-28T10:14:50;51.30;;;22.50;;
8486;SDS011;4280;50.534;8.708;2024-02-28T10:17:16;47.60;;;18.80;;
8486;SDS011;4280;50.534;8.708;2024-02-28T10:19:42;44.77;;;20.37;;
8486;SDS011;4280;50.534;8.708;2024-02-28T10:22:07;45.13;;;18.20;;
8486;SDS011;4280;50.534;8.708;2024-02-28T10:24:33;40.57;;;20.20;;
8486;SDS011;4280;50.534;8.708;2024-02-28T10:27:00;41.43;;;19.00;;
8486;SDS011;4280;50.534;8.708;2024-02-28T10:29:26;53.47;;;20.77;;
8486;SDS011;4280;50.534;8.708;2024-02-28T10:31:58;52.93;;;19.80;;
8486;SDS011;4280;50.534;8.708;2024-02-28T10:34:24;46.87;;;20.67;;
8486;SDS011;4280;50.534;8.708;2024-02-28T10:36:50;50.33;;;20.30;;
8486;SDS011;4280;50.534;8.708;2024-02-28T10:39:16;43.80;;;19.90;;
8486;SDS011;4280;50.534;8.708;2024-02-28T10:41:45;42.60;;;20.53;;
8486;SDS011;4280;50.534;8.708;2024-02-28T10:44:13;44.87;;;19.70;;
8486;SDS011;4280;50.534;8.708;2024-02-28T10:46:41;46.23;;;18.77;;
8486;SDS011;4280;50.534;8.708;2024-02-28T10:49:09;38.00;;;17.90;;
8486;SDS011;4280;50.534;8.708;2024-02-28T10:51:36;37.60;;;18.90;;
8486;SDS011;4280;50.534;8.708;2024-02-28T10:54:07;49.27;;;20.87;;
8486;SDS011;4280;50.534;8.708;2024-02-28T10:56:37;50.00;;;20.77;;
8486;SDS011;4280;50.534;8.708;2024-02-28T10:59:07;39.13;;;18.20;;
8486;SDS011;4280;50.534;8.708;2024-02-28T11:01:38;44.63;;;17.53;;
8486;SDS011;4280;50.534;8.708;2024-02-28T11:04:13;36.20;;;17.23;;
8486;SDS011;4280;50.534;8.708;2024-02-28T11:06:47;45.00;;;19.60;;
8486;SDS011;4280;50.534;8.708;2024-02-28T11:09:19;36.50;;;17.97;;
8486;SDS011;4280;50.534;8.708;2024-02-28T11:11:50;37.90;;;18.60;;
8486;SDS011;4280;50.534;8.708;2024-02-28T11:14:17;46.63;;;22.00;;
8486;SDS011;4280;50.534;8.708;2024-02-28T11:16:47;40.47;;;18.80;;
8486;SDS011;4280;50.534;8.708;2024-02-28T11:19:23;40.03;;;18.50;;
8486;SDS011;4280;50.534;8.708;2024-02-28T11:21:56;34.20;;;18.27;;
8486;SDS011;4280;50.534;8.708;2024-02-28T11:24:23;45.83;;;19.40;;
8486;SDS011;4280;50.534;8.708;2024-02-28T11:26:52;41.70;;;16.90;;
8486;SDS011;4280;50.534;8.708;2024-02-28T11:29:25;36.80;;;16.27;;
8486;SDS011;4280;50.534;8.708;2024-02-28T11:31:53;41.07;;;19.00;;
8486;SDS011;4280;50.534;8.708;2024-02-28T11:34:19;46.40;;;20.53;;
8486;SDS011;4280;50.534;8.708;2024-02-28T11:36:49;46.40;;;20.40;;
8486;SDS011;4280;50.534;8.708;2024-02-28T11:39:16;37.70;;;18.63;;
8486;SDS011;4280;50.534;8.708;2024-02-28T11:41:43;39.50;;;19.77;;
8486;SDS011;4280;50.534;8.708;2024-02-28T11:44:11;46.33;;;20.90;;
8486;SDS011;4280;50.534;8.708;2024-02-28T11:46:38;45.17;;;20.43;;
8486;SDS011;4280;50.534;8.708;2024-02-28T11:49:09;39.30;;;19.00;;
8486;SDS011;4280;50.534;8.708;2024-02-28T11:51:35;45.20;;;20.33;;
8486;SDS011;4280;50.534;8.708;2024-02-28T11:54:01;42.10;;;20.30;;
8486;SDS011;4280;50.534;8.708;2024-02-28T11:56:27;42.93;;;20.50;;
8486;SDS011;4280;50.534;8.708;2024-02-28T11:58:53;45.00;;;20.50;;
8486;SDS011;4280;50.534;8.708;2024-02-28T12:01:42;42.93;;;20.33;;
8486;SDS011;4280;50.534;8.708;2024-02-28T12:04:11;46.07;;;20.07;;
8486;SDS011;4280;50.534;8.708;2024-02-28T12:06:41;45.33;;;19.83;;
8486;SDS011;4280;50.534;8.708;2024-02-28T12:09:07;55.07;;;21.40;;
8486;SDS011;4280;50.534;8.708;2024-02-28T12:11:36;37.23;;;18.97;;
8486;SDS011;4280;50.534;8.708;2024-02-28T12:14:03;41.50;;;21.17;;
8486;SDS011;4280;50.534;8.708;2024-02-28T12:16:32;42.90;;;21.13;;
8486;SDS011;4280;50.534;8.708;2024-02-28T12:18:57;43.63;;;21.10;;
8486;SDS011;4280;50.534;8.708;2024-02-28T12:21:23;45.20;;;20.53;;
8486;SDS011;4280;50.534;8.708;2024-02-28T12:23:49;41.73;;;19.17;;
8486;SDS011;4280;50.534;8.708;2024-02-28T12:26:18;42.50;;;19.27;;
8486;SDS011;4280;50.534;8.708;2024-02-28T12:28:44;36.70;;;19.23;;
8486;SDS011;4280;50.534;8.708;2024-02-28T12:31:11;41.67;;;18.30;;
8486;SDS011;4280;50.534;8.708;2024-02-28T12:33:38;38.07;;;17.50;;
8486;SDS011;4280;50.534;8.708;2024-02-28T12:36:04;34.87;;;17.70;;
8486;SDS011;4280;50.534;8.708;2024-02-28T12:38:30;39.87;;;19.53;;
8486;SDS011;4280;50.534;8.708;2024-02-28T12:40:56;45.67;;;19.27;;
8486;SDS011;4280;50.534;8.708;2024-02-28T12:43:22;39.87;;;18.63;;
8486;SDS011;4280;50.534;8.708;2024-02-28T12:45:50;36.37;;;16.60;;
8486;SDS011;4280;50.534;8.708;2024-02-28T12:48:15;31.03;;;15.47;;
8486;SDS011;4280;50.534;8.708;2024-02-28T12:50:41;37.17;;;15.70;;
8486;SDS011;4280;50.534;8.708;2024-02-28T12:53:07;50.87;;;19.17;;
8486;SDS011;4280;50.534;8.708;2024-02-28T12:55:33;31.33;;;14.70;;
8486;SDS011;4280;50.534;8.708;2024-02-28T12:57:58;33.53;;;16.17;;
8486;SDS011;4280;50.534;8.708;2024-02-28T13:00:30;35.67;;;16.50;;
8486;SDS011;4280;50.534;8.708;2024-02-28T13:02:56;29.70;;;14.73;;
8486;SDS011;4280;50.534;8.708;2024-02-28T13:05:37;35.80;;;16.20;;
8486;SDS011;4280;50.534;8.708;2024-02-28T13:08:03;37.00;;;17.03;;
8486;SDS011;4280;50.534;8.708;2024-02-28T13:10:29;31.37;;;16.07;;
8486;SDS011;4280;50.534;8.708;2024-02-28T13:12:55;34.13;;;15.97;;
8486;SDS011;4280;50.534;8.708;2024-02-28T13:15:21;33.23;;;14.90;;
8486;SDS011;4280;50.534;8.708;2024-02-28T13:17:46;33.10;;;15.03;;
8486;SDS011;4280;50.534;8.708;2024-02-28T13:20:14;32.83;;;15.93;;
8486;SDS011;4280;50.534;8.708;2024-02-28T13:22:40;30.23;;;15.83;;
8486;SDS011;4280;50.534;8.708;2024-02-28T13:25:06;29.70;;;16.50;;
8486;SDS011;4280;50.534;8.708;2024-02-28T13:27:33;36.20;;;16.37;;
8486;SDS011;4280;50.534;8.708;2024-02-28T13:29:59;39.00;;;17.70;;
8486;SDS011;4280;50.534;8.708;2024-02-28T13:32:24;35.33;;;17.67;;
8486;SDS011;4280;50.534;8.708;2024-02-28T13:34:50;35.43;;;18.27;;
8486;SDS011;4280;50.534;8.708;2024-02-28T13:37:16;32.13;;;16.20;;
8486;SDS011;4280;50.534;8.708;2024-02-28T13:39:41;31.50;;;16.27;;
8486;SDS011;4280;50.534;8.708;2024-02-28T13:42:07;45.03;;;18.57;;
8486;SDS011;4280;50.534;8.708;2024-02-28T13:44:34;37.27;;;17.17;;
8486;SDS011;4280;50.534;8.708;2024-02-28T13:47:01;31.00;;;16.33;;
8486;SDS011;4280;50.534;8.708;2024-02-28T13:49:27;36.40;;;18.47;;
8486;SDS011;4280;50.534;8.708;2024-02-28T13:51:53;38.23;;;18.97;;
8486;SDS011;4280;50.534;8.708;2024-02-28T13:54:19;39.57;;;19.30;;
8486;SDS011;4280;50.534;8.708;2024-02-28T13:56:45;37.63;;;17.57;;
8486;SDS011;4280;50.534;8.708;2024-02-28T13:59:11;36.87;;;19.50;;
8486;SDS011;4280;50.534;8.708;2024-02-28T14:01:37;41.93;;;18.67;;
8486;SDS011;4280;50.534;8.708;2024-02-28T14:04:03;41.97;;;18.40;;
8486;SDS011;4280;50.534;8.708;2024-02-28T14:06:29;37.17;;;18.97;;
8486;SDS011;4280;50.534;8.708;2024-02-28T14:08:55;42.43;;;19.20;;
8486;SDS011;4280;50.534;8.708;2024-02-28T14:11:22;42.10;;;18.70;;
8486;SDS011;4280;50.534;8.708;2024-02-28T14:13:47;35.83;;;18.00;;
8486;SDS011;4280;50.534;8.708;2024-02-28T14:16:13;41.67;;;20.30;;
8486;SDS011;4280;50.534;8.708;2024-02-28T14:18:39;41.70;;;19.30;;
8486;SDS011;4280;50.534;8.708;2024-02-28T14:21:05;37.73;;;18.90;;
8486;SDS011;4280;50.534;8.708;2024-02-28T14:23:31;49.30;;;23.03;;
8486;SDS011;4280;50.534;8.708;2024-02-28T14:25:57;52.13;;;20.93;;
8486;SDS011;4280;50.534;8.708;2024-02-28T14:28:22;45.37;;;21.47;;
8486;SDS011;4280;50.534;8.708;2024-02-28T14:30:49;46.40;;;19.60;;
8486;SDS011;4280;50.534;8.708;2024-02-28T14:33:15;46.17;;;22.00;;
8486;SDS011;4280;50.534;8.708;2024-02-28T14:35:41;46.83;;;19.70;;
8486;SDS011;4280;50.534;8.708;2024-02-28T14:38:07;46.57;;;19.73;;
8486;SDS011;4280;50.534;8.708;2024-02-28T14:40:33;40.93;;;19.57;;